createdAt,value
2022-12-11T08:31:40.960Z,2.10
2022-12-11T08:34:08.974Z,2.10
2022-12-11T08:36:36.998Z,2.10
2022-12-11T08:39:05.153Z,2.10
2022-12-11T08:41:33.205Z,2.20
2022-12-11T08:44:01.809Z,2.20
2022-12-11T08:46:31.886Z,2.30
2022-12-11T08:49:01.716Z,2.30
2022-12-11T08:51:30.957Z,2.30
2022-12-11T08:54:01.000Z,2.40
2022-12-11T08:56:30.609Z,2.40
2022-12-11T08:59:00.909Z,2.40
2022-12-11T09:01:29.582Z,2.40
2022-12-11T09:03:58.204Z,2.50
2022-12-11T09:06:29.315Z,2.50
2022-12-11T09:09:00.524Z,2.50
2022-12-11T09:11:31.262Z,2.40
2022-12-11T09:14:05.128Z,2.50
2022-12-11T09:16:40.375Z,2.40
2022-12-11T09:19:11.801Z,2.40
2022-12-11T09:21:41.825Z,2.40
2022-12-11T09:24:11.611Z,2.50
2022-12-11T09:26:40.083Z,2.50
2022-12-11T09:29:08.978Z,2.50
2022-12-11T09:31:38.130Z,2.50
2022-12-11T09:34:08.429Z,2.40
2022-12-11T09:36:39.072Z,2.50
2022-12-11T09:39:09.824Z,2.50
2022-12-11T09:41:47.863Z,2.50
2022-12-11T09:44:39.677Z,2.50
2022-12-11T09:47:21.399Z,2.40
2022-12-11T09:49:55.125Z,2.40
2022-12-11T09:52:30.110Z,2.40
2022-12-11T10:02:16.125Z,2.50
2022-12-11T10:04:55.218Z,2.40
2022-12-11T10:07:31.584Z,2.40
2022-12-11T10:10:04.468Z,2.40
2022-12-11T10:12:43.330Z,2.40
2022-12-11T10:15:24.865Z,2.40
2022-12-11T10:18:01.316Z,2.40
2022-12-11T10:20:36.474Z,2.50
2022-12-11T10:23:08.064Z,2.50
2022-12-11T10:25:38.621Z,2.60
2022-12-11T10:28:13.644Z,2.50
2022-12-11T10:30:47.868Z,2.50
2022-12-11T10:33:22.597Z,2.50
2022-12-11T10:35:53.508Z,2.50
2022-12-11T10:38:28.837Z,2.50
2022-12-11T10:40:59.526Z,2.50
2022-12-11T10:43:36.000Z,2.50
2022-12-11T10:46:05.257Z,2.60
2022-12-11T10:48:34.865Z,2.60
2022-12-11T10:51:05.999Z,2.60
2022-12-11T10:53:35.439Z,2.60
2022-12-11T10:56:04.116Z,2.60
2022-12-11T10:58:35.241Z,2.70
2022-12-11T11:01:10.478Z,2.70
2022-12-11T11:03:58.784Z,2.80
2022-12-11T11:06:29.076Z,2.80
2022-12-11T11:08:59.083Z,2.80
2022-12-11T11:11:29.863Z,2.80
2022-12-11T11:14:13.308Z,2.80
2022-12-11T11:16:44.078Z,2.70
2022-12-11T11:19:25.525Z,2.70
2022-12-11T11:21:57.320Z,2.80
2022-12-11T11:24:41.746Z,2.70
2022-12-11T11:27:15.655Z,2.70
2022-12-11T11:29:47.673Z,2.80
2022-12-11T11:32:21.998Z,2.80
2022-12-11T11:34:51.521Z,2.70
2022-12-11T11:37:32.925Z,2.80
2022-12-11T11:40:09.392Z,2.80
2022-12-11T11:42:46.617Z,2.70
2022-12-11T11:45:18.721Z,2.70
2022-12-11T11:47:59.611Z,2.70
2022-12-11T11:50:34.848Z,2.70
2022-12-11T11:53:10.617Z,2.70
2022-12-11T11:55:45.159Z,2.70
2022-12-11T11:58:17.744Z,2.70
2022-12-11T12:00:46.187Z,2.70
2022-12-11T12:03:17.312Z,2.70
2022-12-11T12:05:53.196Z,2.70
2022-12-11T12:08:35.657Z,2.70
2022-12-11T12:11:10.358Z,2.70
2022-12-11T12:13:50.405Z,2.80
2022-12-11T12:19:27.766Z,2.70
2022-12-11T12:21:58.247Z,2.70
2022-12-11T12:24:36.916Z,2.70
2022-12-11T12:27:49.952Z,2.70
2022-12-11T12:30:05.911Z,2.70
2022-12-11T12:32:42.138Z,2.70
2022-12-11T12:35:31.108Z,2.70
2022-12-11T12:38:11.752Z,2.70
2022-12-11T12:40:49.588Z,2.70
2022-12-11T12:43:44.843Z,2.70
2022-12-11T12:46:22.047Z,2.70
2022-12-11T12:48:52.232Z,2.70
2022-12-11T12:51:20.634Z,2.70
2022-12-11T12:53:54.625Z,2.70
2022-12-11T12:56:23.679Z,2.80
2022-12-11T12:58:51.785Z,2.80
2022-12-11T13:01:22.998Z,2.80
2022-12-11T13:03:55.739Z,2.80
2022-12-11T13:06:36.876Z,2.80
2022-12-11T13:09:16.982Z,2.80
2022-12-11T13:11:45.661Z,2.90
2022-12-11T13:14:28.795Z,2.90
2022-12-11T13:17:09.146Z,2.80
2022-12-11T13:22:25.446Z,2.80
2022-12-11T13:25:01.789Z,2.70
2022-12-11T13:27:39.920Z,2.70
2022-12-11T13:30:22.078Z,2.80
2022-12-11T13:33:01.991Z,2.90
2022-12-11T13:35:31.492Z,2.90
2022-12-11T13:49:24.470Z,2.70
2022-12-11T13:51:55.220Z,2.70
